sensor_id;sensor_type;location;lat;lon;timestamp;pressure;altitude;pressure_sealevel;temperature;humidity
65329;BME280;51941;52.210;5.158;2023-03-13T00:00:25;100094.59;;;9.66;100.00
65329;BME280;51941;52.210;5.158;2023-03-13T00:02:53;100093.00;;;9.65;100.00
65329;BME280;51941;52.210;5.158;2023-03-13T00:05:20;100063.25;;;9.52;100.00
65329;BME280;51941;52.210;5.158;2023-03-13T00:07:47;100075.56;;;9.64;100.00
65329;BME280;51941;52.210;5.158;2023-03-13T00:10:13;100081.66;;;9.64;100.00
65329;BME280;51941;52.210;5.158;2023-03-13T00:12:40;100071.38;;;9.68;100.00
65329;BME280;51941;52.210;5.158;2023-03-13T00:15:08;100061.00;;;9.61;100.00
65329;BME280;51941;52.210;5.158;2023-03-13T00:17:34;100067.69;;;9.69;100.00
65329;BME280;51941;52.210;5.158;2023-03-13T00:20:03;100027.78;;;9.48;100.00
65329;BME280;51941;52.210;5.158;2023-03-13T00:22:30;100057.13;;;9.69;100.00
65329;BME280;51941;52.210;5.158;2023-03-13T00:24:57;100042.88;;;9.70;100.00
65329;BME280;51941;52.210;5.158;2023-03-13T00:27:24;100041.28;;;9.69;100.00
65329;BME280;51941;52.210;5.158;2023-03-13T00:29:50;100023.03;;;9.67;100.00
65329;BME280;51941;52.210;5.158;2023-03-13T00:32:17;99983.09;;;9.47;100.00
65329;BME280;51941;52.210;5.158;2023-03-13T00:34:44;99987.09;;;9.49;100.00
65329;BME280;51941;52.210;5.158;2023-03-13T00:37:12;99990.31;;;9.51;100.00
65329;BME280;51941;52.210;5.158;2023-03-13T00:39:38;99982.16;;;9.53;100.00
65329;BME280;51941;52.210;5.158;2023-03-13T00:42:05;99965.50;;;9.52;100.00
65329;BME280;51941;52.210;5.158;2023-03-13T00:44:32;99977.28;;;9.67;100.00
65329;BME280;51941;52.210;5.158;2023-03-13T00:46:59;99976.69;;;9.60;100.00
65329;BME280;51941;52.210;5.158;2023-03-13T00:49:26;99959.78;;;9.61;100.00
65329;BME280;51941;52.210;5.158;2023-03-13T00:51:52;99941.16;;;9.50;100.00
65329;BME280;51941;52.210;5.158;2023-03-13T00:54:20;99952.97;;;9.65;100.00
65329;BME280;51941;52.210;5.158;2023-03-13T00:56:47;99943.94;;;9.61;100.00
65329;BME280;51941;52.210;5.158;2023-03-13T00:59:14;99938.16;;;9.64;100.00
65329;BME280;51941;52.210;5.158;2023-03-13T01:01:41;99936.06;;;9.66;100.00
65329;BME280;51941;52.210;5.158;2023-03-13T01:04:10;99919.03;;;9.56;100.00
65329;BME280;51941;52.210;5.158;2023-03-13T01:06:37;99925.13;;;9.57;100.00
65329;BME280;51941;52.210;5.158;2023-03-13T01:09:08;99921.19;;;9.60;100.00
65329;BME280;51941;52.210;5.158;2023-03-13T01:11:39;99890.72;;;9.52;100.00
65329;BME280;51941;52.210;5.158;2023-03-13T01:14:08;99913.59;;;9.63;100.00
65329;BME280;51941;52.210;5.158;2023-03-13T01:16:36;99907.25;;;9.64;100.00
65329;BME280;51941;52.210;5.158;2023-03-13T01:19:04;99877.63;;;9.62;100.00
65329;BME280;51941;52.210;5.158;2023-03-13T01:21:32;99878.00;;;9.71;100.00
65329;BME280;51941;52.210;5.158;2023-03-13T01:23:59;99877.25;;;9.75;100.00
65329;BME280;51941;52.210;5.158;2023-03-13T01:26:26;99881.56;;;9.81;100.00
65329;BME280;51941;52.210;5.158;2023-03-13T01:28:54;99874.41;;;9.82;100.00
65329;BME280;51941;52.210;5.158;2023-03-13T01:31:23;99859.84;;;9.79;100.00
65329;BME280;51941;52.210;5.158;2023-03-13T01:33:53;99844.84;;;9.85;100.00
65329;BME280;51941;52.210;5.158;2023-03-13T01:36:20;99843.25;;;9.84;100.00
65329;BME280;51941;52.210;5.158;2023-03-13T01:38:48;99847.03;;;9.93;100.00
65329;BME280;51941;52.210;5.158;2023-03-13T01:41:16;99829.56;;;9.92;100.00
65329;BME280;51941;52.210;5.158;2023-03-13T01:43:44;99824.28;;;9.92;100.00
65329;BME280;51941;52.210;5.158;2023-03-13T01:46:16;99801.75;;;9.84;100.00
65329;BME280;51941;52.210;5.158;2023-03-13T01:49:04;99820.66;;;9.98;100.00
65329;BME280;51941;52.210;5.158;2023-03-13T01:51:44;99791.19;;;9.84;100.00
65329;BME280;51941;52.210;5.158;2023-03-13T01:54:17;99804.47;;;9.89;100.00
65329;BME280;51941;52.210;5.158;2023-03-13T01:56:48;99787.81;;;9.94;100.00
65329;BME280;51941;52.210;5.158;2023-03-13T01:59:22;99796.44;;;10.11;100.00
65329;BME280;51941;52.210;5.158;2023-03-13T02:01:52;99771.56;;;10.07;100.00
65329;BME280;51941;52.210;5.158;2023-03-13T02:04:23;99778.16;;;10.10;100.00
65329;BME280;51941;52.210;5.158;2023-03-13T02:06:54;99756.75;;;10.11;100.00
65329;BME280;51941;52.210;5.158;2023-03-13T02:09:26;99758.59;;;10.06;100.00
65329;BME280;51941;52.210;5.158;2023-03-13T02:12:00;99766.91;;;10.24;100.00
65329;BME280;51941;52.210;5.158;2023-03-13T02:14:29;99730.31;;;10.06;100.00
65329;BME280;51941;52.210;5.158;2023-03-13T02:17:00;99748.69;;;10.28;100.00
65329;BME280;51941;52.210;5.158;2023-03-13T02:19:34;99739.44;;;10.25;100.00
65329;BME280;51941;52.210;5.158;2023-03-13T02:22:10;99722.16;;;10.18;100.00
65329;BME280;51941;52.210;5.158;2023-03-13T02:24:45;99710.28;;;10.15;100.00
65329;BME280;51941;52.210;5.158;2023-03-13T02:27:17;99726.22;;;10.30;100.00
65329;BME280;51941;52.210;5.158;2023-03-13T02:29:45;99728.09;;;10.35;100.00
65329;BME280;51941;52.210;5.158;2023-03-13T02:32:12;99702.91;;;10.22;100.00
65329;BME280;51941;52.210;5.158;2023-03-13T02:34:41;99729.41;;;10.32;100.00
65329;BME280;51941;52.210;5.158;2023-03-13T02:37:09;99710.91;;;10.32;100.00
65329;BME280;51941;52.210;5.158;2023-03-13T02:39:42;99717.56;;;10.45;100.00
65329;BME280;51941;52.210;5.158;2023-03-13T02:42:11;99702.78;;;10.49;100.00
65329;BME280;51941;52.210;5.158;2023-03-13T02:44:40;99703.34;;;10.56;100.00
65329;BME280;51941;52.210;5.158;2023-03-13T02:47:09;99681.88;;;10.48;100.00
65329;BME280;51941;52.210;5.158;2023-03-13T02:49:36;99701.78;;;10.60;100.00
65329;BME280;51941;52.210;5.158;2023-03-13T02:52:09;99676.03;;;10.41;100.00
65329;BME280;51941;52.210;5.158;2023-03-13T02:54:40;99707.84;;;10.61;100.00
65329;BME280;51941;52.210;5.158;2023-03-13T02:57:10;99701.00;;;10.60;100.00
65329;BME280;51941;52.210;5.158;2023-03-13T02:59:39;99702.06;;;10.64;100.00
65329;BME280;51941;52.210;5.158;2023-03-13T03:02:06;99688.81;;;10.64;100.00
65329;BME280;51941;52.210;5.158;2023-03-13T03:04:35;99669.25;;;10.60;100.00
65329;BME280;51941;52.210;5.158;2023-03-13T03:07:01;99697.94;;;10.83;100.00
65329;BME280;51941;52.210;5.158;2023-03-13T03:09:29;99704.56;;;10.86;100.00
65329;BME280;51941;52.210;5.158;2023-03-13T03:12:01;99677.25;;;10.80;100.00
65329;BME280;51941;52.210;5.158;2023-03-13T03:14:28;99701.41;;;10.94;100.00
65329;BME280;51941;52.210;5.158;2023-03-13T03:16:57;99665.03;;;10.74;100.00
65329;BME280;51941;52.210;5.158;2023-03-13T03:19:25;99690.06;;;11.03;100.00
65329;BME280;51941;52.210;5.158;2023-03-13T03:21:52;99668.84;;;10.98;100.00
65329;BME280;51941;52.210;5.158;2023-03-13T03:24:19;99685.28;;;11.05;100.00
65329;BME280;51941;52.210;5.158;2023-03-13T03:26:45;99678.66;;;11.08;100.00
65329;BME280;51941;52.210;5.158;2023-03-13T03:29:20;99667.03;;;11.19;100.00
65329;BME280;51941;52.210;5.158;2023-03-13T03:31:49;99671.25;;;11.15;100.00
65329;BME280;51941;52.210;5.158;2023-03-13T03:34:17;99658.56;;;11.17;100.00
65329;BME280;51941;52.210;5.158;2023-03-13T03:36:45;99664.66;;;11.33;100.00
65329;BME280;51941;52.210;5.158;2023-03-13T03:39:12;99641.88;;;11.17;100.00
65329;BME280;51941;52.210;5.158;2023-03-13T03:41:38;99676.06;;;11.33;100.00
65329;BME280;51941;52.210;5.158;2023-03-13T03:44:06;99654.06;;;11.28;100.00
65329;BME280;51941;52.210;5.158;2023-03-13T03:46:45;99627.56;;;11.18;100.00
65329;BME280;51941;52.210;5.158;2023-03-13T03:49:11;99643.44;;;11.23;100.00
65329;BME280;51941;52.210;5.158;2023-03-13T03:51:40;99656.47;;;11.39;100.00
65329;BME280;51941;52.210;5.158;2023-03-13T03:54:06;99657.81;;;11.47;100.00
65329;BME280;51941;52.210;5.158;2023-03-13T03:56:33;99624.66;;;11.29;100.00
65329;BME280;51941;52.210;5.158;2023-03-13T03:59:00;99637.91;;;11.44;100.00
65329;BME280;51941;52.210;5.158;2023-03-13T04:01:46;99641.91;;;11.47;100.00
65329;BME280;51941;52.210;5.158;2023-03-13T04:04:19;99632.59;;;11.50;100.00
65329;BME280;51941;52.210;5.158;2023-03-13T04:06:52;99611.94;;;11.31;100.00
65329;BME280;51941;52.210;5.158;2023-03-13T04:09:19;99631.56;;;11.46;100.00
65329;BME280;51941;52.210;5.158;2023-03-13T04:11:46;99622.81;;;11.45;100.00
65329;BME280;51941;52.210;5.158;2023-03-13T04:14:13;99617.53;;;11.40;100.00
65329;BME280;51941;52.210;5.158;2023-03-13T04:16:39;99632.88;;;11.53;100.00
65329;BME280;51941;52.210;5.158;2023-03-13T04:19:06;99629.72;;;11.56;100.00
65329;BME280;51941;52.210;5.158;2023-03-13T04:21:34;99617.75;;;11.59;100.00
65329;BME280;51941;52.210;5.158;2023-03-13T04:24:07;99627.56;;;11.58;100.00
65329;BME280;51941;52.210;5.158;2023-03-13T04:26:35;99612.22;;;11.55;100.00
65329;BME280;51941;52.210;5.158;2023-03-13T04:29:02;99594.19;;;11.47;100.00
65329;BME280;51941;52.210;5.158;2023-03-13T04:31:44;99606.38;;;11.63;100.00
65329;BME280;51941;52.210;5.158;2023-03-13T04:34:31;99592.59;;;11.61;100.00
65329;BME280;51941;52.210;5.158;2023-03-13T04:37:33;99609.81;;;11.64;100.00
65329;BME280;51941;52.210;5.158;2023-03-13T04:40:18;99601.34;;;11.62;100.00
65329;BME280;51941;52.210;5.158;2023-03-13T04:42:59;99598.16;;;11.55;100.00
65329;BME280;51941;52.210;5.158;2023-03-13T04:45:41;99611.16;;;11.66;100.00
65329;BME280;51941;52.210;5.158;2023-03-13T04:48:33;99603.72;;;11.58;100.00
65329;BME280;51941;52.210;5.158;2023-03-13T04:51:25;99568.50;;;11.48;100.00
65329;BME280;51941;52.210;5.158;2023-03-13T04:54:12;99592.59;;;11.61;100.00
65329;BME280;51941;52.210;5.158;2023-03-13T04:57:10;99580.09;;;11.67;100.00
65329;BME280;51941;52.210;5.158;2023-03-13T04:59:53;99578.81;;;11.54;100.00
65329;BME280;51941;52.210;5.158;2023-03-13T05:02:49;99596.81;;;11.67;100.00
65329;BME280;51941;52.210;5.158;2023-03-13T05:05:42;99592.31;;;11.68;100.00
65329;BME280;51941;52.210;5.158;2023-03-13T05:08:40;99583.00;;;11.75;100.00
65329;BME280;51941;52.210;5.158;2023-03-13T05:11:28;99583.81;;;11.76;100.00
65329;BME280;51941;52.210;5.158;2023-03-13T05:14:15;99536.41;;;11.49;100.00
65329;BME280;51941;52.210;5.158;2023-03-13T05:17:00;99579.84;;;11.78;100.00
65329;BME280;51941;52.210;5.158;2023-03-13T05:23:26;99571.66;;;11.65;100.00
65329;BME280;51941;52.210;5.158;2023-03-13T05:26:16;99564.47;;;11.80;100.00
65329;BME280;51941;52.210;5.158;2023-03-13T05:28:56;99527.38;;;11.65;100.00
65329;BME280;51941;52.210;5.158;2023-03-13T05:31:38;99554.88;;;11.85;100.00
65329;BME280;51941;52.210;5.158;2023-03-13T05:34:28;99556.44;;;11.96;100.00
65329;BME280;51941;52.210;5.158;2023-03-13T05:36:55;99547.97;;;11.99;100.00
65329;BME280;51941;52.210;5.158;2023-03-13T05:39:40;99551.16;;;12.01;100.00
65329;BME280;51941;52.210;5.158;2023-03-13T05:42:36;99541.63;;;11.85;100.00
65329;BME280;51941;52.210;5.158;2023-03-13T05:45:29;99554.09;;;11.89;100.00
65329;BME280;51941;52.210;5.158;2023-03-13T05:48:23;99541.38;;;11.91;100.00
65329;BME280;51941;52.210;5.158;2023-03-13T05:51:21;99515.69;;;11.81;100.00
65329;BME280;51941;52.210;5.158;2023-03-13T05:54:10;99548.47;;;12.06;100.00
65329;BME280;51941;52.210;5.158;2023-03-13T05:56:58;99533.88;;;12.08;100.00
65329;BME280;51941;52.210;5.158;2023-03-13T06:00:04;99541.56;;;12.05;100.00
65329;BME280;51941;52.210;5.158;2023-03-13T06:03:00;99526.44;;;12.10;100.00
65329;BME280;51941;52.210;5.158;2023-03-13T06:05:35;99518.75;;;12.04;100.00
65329;BME280;51941;52.210;5.158;2023-03-13T06:08:06;99521.94;;;12.06;100.00
65329;BME280;51941;52.210;5.158;2023-03-13T06:10:32;99518.75;;;12.14;100.00
65329;BME280;51941;52.210;5.158;2023-03-13T06:13:02;99478.53;;;11.92;100.00
65329;BME280;51941;52.210;5.158;2023-03-13T06:15:38;99506.00;;;12.11;100.00
65329;BME280;51941;52.210;5.158;2023-03-13T06:18:33;99520.03;;;12.22;100.00
65329;BME280;51941;52.210;5.158;2023-03-13T06:21:01;99504.44;;;12.10;100.00
65329;BME280;51941;52.210;5.158;2023-03-13T06:23:28;99529.84;;;12.26;100.00
65329;BME280;51941;52.210;5.158;2023-03-13T06:25:55;99537.53;;;12.28;100.00
65329;BME280;51941;52.210;5.158;2023-03-13T06:28:30;99531.66;;;12.31;100.00
65329;BME280;51941;52.210;5.158;2023-03-13T06:31:00;99538.88;;;12.25;100.00
65329;BME280;51941;52.210;5.158;2023-03-13T06:33:27;99525.38;;;12.16;100.00
65329;BME280;51941;52.210;5.158;2023-03-13T06:35:55;99533.56;;;12.20;100.00
65329;BME280;51941;52.210;5.158;2023-03-13T06:38:33;99462.09;;;11.90;100.00
65329;BME280;51941;52.210;5.158;2023-03-13T06:41:00;99527.94;;;12.32;100.00
65329;BME280;51941;52.210;5.158;2023-03-13T06:43:27;99539.56;;;12.41;100.00
65329;BME280;51941;52.210;5.158;2023-03-13T06:45:54;99495.38;;;12.11;100.00
65329;BME280;51941;52.210;5.158;2023-03-13T06:48:20;99536.38;;;12.39;100.00
65329;BME280;51941;52.210;5.158;2023-03-13T06:50:50;99542.53;;;12.34;100.00
65329;BME280;51941;52.210;5.158;2023-03-13T06:53:21;99523.47;;;12.27;100.00
65329;BME280;51941;52.210;5.158;2023-03-13T06:55:49;99534.00;;;12.37;100.00
65329;BME280;51941;52.210;5.158;2023-03-13T06:58:16;99521.34;;;12.24;100.00
65329;BME280;51941;52.210;5.158;2023-03-13T07:00:43;99554.22;;;12.33;100.00
65329;BME280;51941;52.210;5.158;2023-03-13T07:03:10;99551.81;;;12.32;100.00
65329;BME280;51941;52.210;5.158;2023-03-13T07:05:38;99551.56;;;12.33;100.00
65329;BME280;51941;52.210;5.158;2023-03-13T07:08:05;99533.28;;;12.22;100.00
65329;BME280;51941;52.210;5.158;2023-03-13T07:10:32;99543.91;;;12.22;100.00
65329;BME280;51941;52.210;5.158;2023-03-13T07:13:03;99540.19;;;12.28;100.00
65329;BME280;51941;52.210;5.158;2023-03-13T07:15:30;99550.53;;;12.24;100.00
65329;BME280;51941;52.210;5.158;2023-03-13T07:17:57;99550.81;;;12.23;100.00
65329;BME280;51941;52.210;5.158;2023-03-13T07:20:30;99541.56;;;12.15;100.00
65329;BME280;51941;52.210;5.158;2023-03-13T07:22:58;99535.72;;;12.18;100.00
65329;BME280;51941;52.210;5.158;2023-03-13T07:25:25;99528.56;;;12.03;100.00
65329;BME280;51941;52.210;5.158;2023-03-13T07:27:51;99533.59;;;12.15;100.00
65329;BME280;51941;52.210;5.158;2023-03-13T07:30:20;99552.66;;;12.12;100.00
65329;BME280;51941;52.210;5.158;2023-03-13T07:32:46;99536.56;;;11.98;100.00
65329;BME280;51941;52.210;5.158;2023-03-13T07:35:13;99521.75;;;11.87;100.00
65329;BME280;51941;52.210;5.158;2023-03-13T07:37:40;99559.56;;;12.13;100.00
65329;BME280;51941;52.210;5.158;2023-03-13T07:40:08;99556.38;;;12.11;100.00
65329;BME280;51941;52.210;5.158;2023-03-13T07:42:35;99568.63;;;12.02;100.00
65329;BME280;51941;52.210;5.158;2023-03-13T07:45:02;99556.44;;;12.01;100.00
65329;BME280;51941;52.210;5.158;2023-03-13T07:47:32;99561.44;;;12.07;100.00
65329;BME280;51941;52.210;5.158;2023-03-13T07:49:59;99572.59;;;12.09;100.00
65329;BME280;51941;52.210;5.158;2023-03-13T07:52:26;99555.38;;;11.97;100.00
65329;BME280;51941;52.210;5.158;2023-03-13T07:54:55;99545.59;;;11.92;100.00
65329;BME280;51941;52.210;5.158;2023-03-13T07:57:22;99541.09;;;11.93;100.00
65329;BME280;51941;52.210;5.158;2023-03-13T07:59:49;99563.53;;;12.21;100.00
65329;BME280;51941;52.210;5.158;2023-03-13T08:02:16;99576.53;;;12.27;100.00
65329;BME280;51941;52.210;5.158;2023-03-13T08:04:44;99573.28;;;12.40;100.00
65329;BME280;51941;52.210;5.158;2023-03-13T08:07:11;99531.66;;;12.31;100.00
65329;BME280;51941;52.210;5.158;2023-03-13T08:09:37;99541.06;;;12.62;100.00
65329;BME280;51941;52.210;5.158;2023-03-13T08:12:06;99541.75;;;12.78;100.00
65329;BME280;51941;52.210;5.158;2023-03-13T08:14:33;99537.44;;;12.82;100.00
65329;BME280;51941;52.210;5.158;2023-03-13T08:16:59;99537.81;;;13.04;100.00
65329;BME280;51941;52.210;5.158;2023-03-13T08:19:26;99534.59;;;13.07;100.00
65329;BME280;51941;52.210;5.158;2023-03-13T08:21:55;99520.03;;;13.05;100.00
65329;BME280;51941;52.210;5.158;2023-03-13T08:24:21;99517.38;;;13.05;100.00
65329;BME280;51941;52.210;5.158;2023-03-13T08:26:48;99501.19;;;13.01;100.00
65329;BME280;51941;52.210;5.158;2023-03-13T08:29:15;99525.72;;;13.22;100.00
65329;BME280;51941;52.210;5.158;2023-03-13T08:31:43;99512.97;;;13.19;100.00
65329;BME280;51941;52.210;5.158;2023-03-13T08:34:12;99514.56;;;13.20;100.00
65329;BME280;51941;52.210;5.158;2023-03-13T08:36:40;99500.06;;;13.07;100.00
65329;BME280;51941;52.210;5.158;2023-03-13T08:39:10;99514.94;;;13.08;100.00
65329;BME280;51941;52.210;5.158;2023-03-13T08:41:37;99516.56;;;13.04;100.00
65329;BME280;51941;52.210;5.158;2023-03-13T08:44:05;99508.94;;;12.98;100.00
65329;BME280;51941;52.210;5.158;2023-03-13T08:46:33;99512.69;;;12.91;100.00
65329;BME280;51941;52.210;5.158;2023-03-13T08:49:01;99503.09;;;12.96;100.00
65329;BME280;51941;52.210;5.158;2023-03-13T08:51:29;99503.19;;;12.85;100.00
65329;BME280;51941;52.210;5.158;2023-03-13T08:53:56;99468.00;;;12.70;100.00
65329;BME280;51941;52.210;5.158;2023-03-13T08:56:25;99477.25;;;12.72;100.00
65329;BME280;51941;52.210;5.158;2023-03-13T08:58:52;99498.91;;;12.89;100.00
65329;BME280;51941;52.210;5.158;2023-03-13T09:01:21;99496.06;;;13.10;100.00
65329;BME280;51941;52.210;5.158;2023-03-13T09:03:48;99469.13;;;12.92;100.00
65329;BME280;51941;52.210;5.158;2023-03-13T09:06:15;99485.00;;;13.26;100.00
65329;BME280;51941;52.210;5.158;2023-03-13T09:08:42;99478.50;;;13.43;100.00
65329;BME280;51941;52.210;5.158;2023-03-13T09:11:12;99466.84;;;13.62;100.00
65329;BME280;51941;52.210;5.158;2023-03-13T09:13:42;99468.56;;;13.77;100.00
65329;BME280;51941;52.210;5.158;2023-03-13T09:16:11;99459.50;;;13.97;100.00
65329;BME280;51941;52.210;5.158;2023-03-13T09:18:39;99463.25;;;13.96;100.00
65329;BME280;51941;52.210;5.158;2023-03-13T09:21:07;99449.00;;;14.05;100.00
65329;BME280;51941;52.210;5.158;2023-03-13T09:23:34;99422.53;;;13.95;100.00
65329;BME280;51941;52.210;5.158;2023-03-13T09:26:01;99449.00;;;13.87;100.00
65329;BME280;51941;52.210;5.158;2023-03-13T09:28:28;99448.00;;;13.83;100.00
65329;BME280;51941;52.210;5.158;2023-03-13T09:31:05;99434.94;;;13.86;100.00
65329;BME280;51941;52.210;5.158;2023-03-13T09:33:31;99426.06;;;13.91;100.00
65329;BME280;51941;52.210;5.158;2023-03-13T09:35:58;99422.78;;;13.99;100.00
65329;BME280;51941;52.210;5.158;2023-03-13T09:38:25;99421.34;;;14.06;100.00
65329;BME280;51941;52.210;5.158;2023-03-13T09:40:53;99416.75;;;14.12;100.00
65329;BME280;51941;52.210;5.158;2023-03-13T09:43:29;99420.47;;;14.30;100.00
65329;BME280;51941;52.210;5.158;2023-03-13T09:46:04;99412.31;;;14.40;100.00
65329;BME280;51941;52.210;5.158;2023-03-13T09:48:38;99405.41;;;14.58;100.00
65329;BME280;51941;52.210;5.158;2023-03-13T09:51:15;99393.31;;;14.65;100.00
65329;BME280;51941;52.210;5.158;2023-03-13T09:53:46;99398.16;;;14.77;100.00
65329;BME280;51941;52.210;5.158;2023-03-13T09:56:16;99394.47;;;14.92;100.00
65329;BME280;51941;52.210;5.158;2023-03-13T09:58:48;99393.34;;;14.93;100.00
65329;BME280;51941;52.210;5.158;2023-03-13T10:01:20;99390.41;;;14.94;100.00
65329;BME280;51941;52.210;5.158;2023-03-13T10:03:56;99369.47;;;15.01;100.00
65329;BME280;51941;52.210;5.158;2023-03-13T10:06:24;99363.16;;;15.11;100.00
65329;BME280;51941;52.210;5.158;2023-03-13T10:08:53;99356.19;;;15.15;100.00
65329;BME280;51941;52.210;5.158;2023-03-13T10:11:28;99368.72;;;15.42;100.00
65329;BME280;51941;52.210;5.158;2023-03-13T10:14:02;99359.72;;;15.24;100.00
65329;BME280;51941;52.210;5.158;2023-03-13T10:16:37;99356.66;;;15.31;100.00
65329;BME280;51941;52.210;5.158;2023-03-13T10:19:11;99373.41;;;15.45;100.00
65329;BME280;51941;52.210;5.158;2023-03-13T10:21:41;99353.47;;;15.56;100.00
65329;BME280;51941;52.210;5.158;2023-03-13T10:24:14;99369.16;;;15.58;100.00
65329;BME280;51941;52.210;5.158;2023-03-13T10:26:42;99355.75;;;15.63;100.00
65329;BME280;51941;52.210;5.158;2023-03-13T10:29:19;99344.88;;;15.59;100.00
65329;BME280;51941;52.210;5.158;2023-03-13T10:31:56;99340.34;;;15.46;100.00
65329;BME280;51941;52.210;5.158;2023-03-13T10:34:23;99352.19;;;15.53;100.00
65329;BME280;51941;52.210;5.158;2023-03-13T10:36:54;99361.00;;;15.68;100.00
65329;BME280;51941;52.210;5.158;2023-03-13T10:39:24;99358.19;;;15.86;100.00
65329;BME280;51941;52.210;5.158;2023-03-13T10:41:56;99339.00;;;16.07;100.00
65329;BME280;51941;52.210;5.158;2023-03-13T10:44:30;99349.22;;;16.27;100.00
65329;BME280;51941;52.210;5.158;2023-03-13T10:47:01;99348.19;;;16.14;100.00
65329;BME280;51941;52.210;5.158;2023-03-13T10:49:30;99353.06;;;16.12;100.00
65329;BME280;51941;52.210;5.158;2023-03-13T10:51:59;99354.13;;;16.11;100.00
65329;BME280;51941;52.210;5.158;2023-03-13T10:54:27;99329.53;;;16.14;100.00
65329;BME280;51941;52.210;5.158;2023-03-13T10:57:21;99316.56;;;16.08;100.00
65329;BME280;51941;52.210;5.158;2023-03-13T10:59:53;99323.59;;;16.26;100.00
65329;BME280;51941;52.210;5.158;2023-03-13T11:02:25;99329.25;;;16.24;100.00
65329;BME280;51941;52.210;5.158;2023-03-13T11:04:53;99313.91;;;16.08;100.00
65329;BME280;51941;52.210;5.158;2023-03-13T11:07:24;99330.97;;;16.20;100.00
65329;BME280;51941;52.210;5.158;2023-03-13T11:09:58;99325.25;;;16.13;100.00
65329;BME280;51941;52.210;5.158;2023-03-13T11:12:26;99344.47;;;16.24;100.00
65329;BME280;51941;52.210;5.158;2023-03-13T11:14:56;99314.50;;;16.27;97.89
65329;BME280;51941;52.210;5.158;2023-03-13T11:17:30;99297.59;;;16.32;100.00
65329;BME280;51941;52.210;5.158;2023-03-13T11:20:04;99300.06;;;16.28;100.00
65329;BME280;51941;52.210;5.158;2023-03-13T11:23:04;99322.06;;;16.56;100.00
65329;BME280;51941;52.210;5.158;2023-03-13T11:25:38;99318.38;;;16.65;100.00
65329;BME280;51941;52.210;5.158;2023-03-13T11:28:24;99304.00;;;16.61;100.00
65329;BME280;51941;52.210;5.158;2023-03-13T11:31:02;99306.63;;;16.53;98.02
65329;BME280;51941;52.210;5.158;2023-03-13T11:33:38;99317.97;;;16.81;100.00
65329;BME280;51941;52.210;5.158;2023-03-13T11:36:14;99311.75;;;16.94;100.00
65329;BME280;51941;52.210;5.158;2023-03-13T11:38:48;99275.69;;;16.83;94.50
65329;BME280;51941;52.210;5.158;2023-03-13T11:41:29;99298.50;;;16.89;97.04
65329;BME280;51941;52.210;5.158;2023-03-13T11:47:01;99321.34;;;17.03;100.00
65329;BME280;51941;52.210;5.158;2023-03-13T11:52:26;99314.94;;;16.74;90.46
65329;BME280;51941;52.210;5.158;2023-03-13T11:55:08;99318.56;;;16.78;94.91
65329;BME280;51941;52.210;5.158;2023-03-13T11:57:46;99286.34;;;16.74;93.02
65329;BME280;51941;52.210;5.158;2023-03-13T12:00:20;99291.53;;;16.79;93.12
65329;BME280;51941;52.210;5.158;2023-03-13T12:02:50;99313.78;;;16.97;88.22
65329;BME280;51941;52.210;5.158;2023-03-13T12:05:22;99288.00;;;16.92;87.90
65329;BME280;51941;52.210;5.158;2023-03-13T12:07:54;99283.25;;;16.89;87.96
65329;BME280;51941;52.210;5.158;2023-03-13T12:10:25;99300.28;;;16.62;78.52
65329;BME280;51941;52.210;5.158;2023-03-13T12:13:01;99286.91;;;16.62;80.55
65329;BME280;51941;52.210;5.158;2023-03-13T12:15:31;99306.47;;;16.49;80.19
65329;BME280;51941;52.210;5.158;2023-03-13T12:18:04;99281.03;;;16.52;84.37
65329;BME280;51941;52.210;5.158;2023-03-13T12:20:41;99292.91;;;16.68;87.65
65329;BME280;51941;52.210;5.158;2023-03-13T12:23:18;99270.31;;;16.74;85.10
65329;BME280;51941;52.210;5.158;2023-03-13T12:25:50;99283.09;;;16.94;92.08
65329;BME280;51941;52.210;5.158;2023-03-13T12:28:24;99252.13;;;16.85;85.48
65329;BME280;51941;52.210;5.158;2023-03-13T12:30:59;99279.06;;;17.14;88.60
65329;BME280;51941;52.210;5.158;2023-03-13T12:33:30;99282.84;;;17.22;87.19
65329;BME280;51941;52.210;5.158;2023-03-13T12:36:07;99267.09;;;17.03;77.09
65329;BME280;51941;52.210;5.158;2023-03-13T12:38:38;99278.13;;;17.10;84.44
65329;BME280;51941;52.210;5.158;2023-03-13T12:41:13;99260.50;;;17.09;84.82
65329;BME280;51941;52.210;5.158;2023-03-13T12:43:49;99227.94;;;16.98;90.25
65329;BME280;51941;52.210;5.158;2023-03-13T12:46:32;99265.84;;;17.09;84.90
65329;BME280;51941;52.210;5.158;2023-03-13T12:49:30;99258.31;;;17.02;78.75
65329;BME280;51941;52.210;5.158;2023-03-13T12:55:00;99246.00;;;16.53;76.35
65329;BME280;51941;52.210;5.158;2023-03-13T12:57:52;99268.41;;;16.44;77.15
65329;BME280;51941;52.210;5.158;2023-03-13T13:00:28;99250.34;;;16.41;87.24
65329;BME280;51941;52.210;5.158;2023-03-13T13:03:05;99240.25;;;16.07;75.83
65329;BME280;51941;52.210;5.158;2023-03-13T13:05:35;99228.72;;;16.20;86.13
65329;BME280;51941;52.210;5.158;2023-03-13T13:08:03;99227.53;;;16.04;80.21
65329;BME280;51941;52.210;5.158;2023-03-13T13:10:30;99223.00;;;16.04;80.45
65329;BME280;51941;52.210;5.158;2023-03-13T13:13:17;99241.88;;;16.16;77.99
65329;BME280;51941;52.210;5.158;2023-03-13T13:15:46;99196.16;;;15.78;75.72
65329;BME280;51941;52.210;5.158;2023-03-13T13:18:23;99225.47;;;16.01;85.35
65329;BME280;51941;52.210;5.158;2023-03-13T13:21:19;99219.78;;;15.93;81.42
65329;BME280;51941;52.210;5.158;2023-03-13T13:23:49;99224.03;;;15.95;87.86
65329;BME280;51941;52.210;5.158;2023-03-13T13:26:48;99193.72;;;15.68;82.37
65329;BME280;51941;52.210;5.158;2023-03-13T13:32:37;99187.47;;;15.73;79.79
65329;BME280;51941;52.210;5.158;2023-03-13T13:35:19;99178.44;;;15.60;80.33